Time;durP1;ratioP1;P1;durP2;ratioP2;P2;SDS_P1;SDS_P2;PMS_P1;PMS_P2;Temp;Humidity;BMP_temperature;BMP_pressure;BME280_temperature;BME280_humidity;BME280_pressure;Samples;Min_cycle;Max_cycle;Signal;HPM_P1;HPM_P2
2023/08/17 00:02:16;;;;;;;5.87;3.60;;;18.10;99.90;;;;;;4993885;28;20460;-69
2023/08/17 00:04:45;;;;;;;6.47;4.20;;;18.10;99.90;;;;;;4993765;28;20452;-69
2023/08/17 00:07:13;;;;;;;5.73;3.90;;;18.00;99.90;;;;;;4993852;28;20437;-70
2023/08/17 00:09:42;;;;;;;5.60;3.97;;;18.10;99.90;;;;;;4993834;28;20418;-71
2023/08/17 00:12:10;;;;;;;5.73;4.80;;;18.00;99.90;;;;;;4994036;28;20558;-70
2023/08/17 00:14:39;;;;;;;6.47;4.60;;;18.00;99.90;;;;;;5008804;28;20887;-71
2023/08/17 00:17:07;;;;;;;10.37;4.47;;;18.00;99.90;;;;;;5008750;28;20523;-71
2023/08/17 00:19:35;;;;;;;5.23;3.90;;;18.00;99.90;;;;;;4994033;28;20479;-71
2023/08/17 00:22:04;;;;;;;5.23;3.70;;;18.00;99.90;;;;;;4993835;28;20487;-72
2023/08/17 00:24:33;;;;;;;7.57;3.73;;;18.00;99.90;;;;;;4993682;28;20461;-71
2023/08/17 00:27:01;;;;;;;6.10;3.70;;;18.00;99.90;;;;;;4993659;28;20536;-71
2023/08/17 00:29:29;;;;;;;5.13;4.27;;;18.00;99.90;;;;;;4994217;28;20435;-71
2023/08/17 00:31:57;;;;;;;6.77;3.80;;;17.90;99.90;;;;;;5008699;28;20535;-71
2023/08/17 00:34:25;;;;;;;5.33;4.07;;;18.00;99.90;;;;;;4993532;28;20460;-71
2023/08/17 00:36:53;;;;;;;6.70;3.40;;;17.90;99.90;;;;;;5008555;28;20511;-69
2023/08/17 00:39:23;;;;;;;5.10;3.20;;;17.90;99.90;;;;;;4993696;28;20933;-70
2023/08/17 00:41:51;;;;;;;5.20;3.67;;;17.90;99.90;;;;;;4993901;28;20432;-70
2023/08/17 00:44:20;;;;;;;6.27;4.60;;;17.90;99.90;;;;;;4994029;28;20460;-70
2023/08/17 00:46:48;;;;;;;6.23;4.77;;;17.90;99.90;;;;;;4994170;28;20411;-70
2023/08/17 00:49:17;;;;;;;7.43;4.63;;;17.90;99.90;;;;;;5008583;28;20445;-70
2023/08/17 00:51:45;;;;;;;6.03;4.30;;;17.90;99.90;;;;;;5008599;28;20460;-70
2023/08/17 00:54:16;;;;;;;5.67;4.10;;;17.80;99.90;;;;;;5009894;28;20468;-70
2023/08/17 00:56:46;;;;;;;4.67;3.80;;;17.80;99.90;;;;;;4995757;28;20535;-70
2023/08/17 00:59:14;;;;;;;7.10;3.40;;;17.80;99.90;;;;;;4997082;28;20418;-70
2023/08/17 01:01:43;;;;;;;8.00;4.17;;;17.80;99.90;;;;;;4995805;28;20466;-70
2023/08/17 01:04:11;;;;;;;7.33;4.40;;;17.80;99.90;;;;;;4997168;28;20781;-70
2023/08/17 01:06:39;;;;;;;7.30;4.27;;;17.80;99.90;;;;;;4997257;28;20441;-70
2023/08/17 01:09:08;;;;;;;5.80;3.03;;;17.80;99.90;;;;;;4997351;28;20771;-70
2023/08/17 01:11:45;;;;;;;8.90;4.30;;;17.80;99.90;;;;;;4997473;28;20465;-70
2023/08/17 01:14:24;;;;;;;7.60;3.43;;;17.80;99.90;;;;;;5012148;28;20472;-70
2023/08/17 01:16:59;;;;;;;4.43;3.10;;;17.80;99.90;;;;;;4995745;28;20464;-70
2023/08/17 01:19:28;;;;;;;7.33;4.07;;;17.80;99.90;;;;;;5012079;28;20464;-70
2023/08/17 01:22:04;;;;;;;5.40;3.33;;;17.80;99.90;;;;;;4995681;28;20528;-70
2023/08/17 01:24:33;;;;;;;5.93;3.30;;;17.80;99.90;;;;;;5011841;28;20571;-70
2023/08/17 01:27:02;;;;;;;6.10;3.30;;;17.80;99.90;;;;;;4997092;28;20436;-70
2023/08/17 01:29:30;;;;;;;5.50;3.50;;;17.80;99.90;;;;;;5011791;28;20948;-70
2023/08/17 01:32:07;;;;;;;3.80;2.90;;;17.80;99.90;;;;;;4996872;28;20422;-70
2023/08/17 01:34:41;;;;;;;5.20;3.30;;;17.80;99.90;;;;;;5012005;28;20526;-70
2023/08/17 01:37:11;;;;;;;4.30;3.07;;;17.80;99.90;;;;;;4997099;28;20453;-70
2023/08/17 01:39:46;;;;;;;4.70;3.43;;;17.70;99.90;;;;;;4995368;28;20983;-70
2023/08/17 01:42:14;;;;;;;4.43;2.83;;;17.80;99.90;;;;;;4997309;28;20462;-70
2023/08/17 01:44:43;;;;;;;8.60;3.20;;;17.70;99.90;;;;;;4995545;28;20439;-70
2023/08/17 01:47:11;;;;;;;5.13;3.10;;;17.80;99.90;;;;;;4996937;28;20444;-70
2023/08/17 01:49:39;;;;;;;7.30;3.60;;;17.80;99.90;;;;;;4996954;28;20567;-70
2023/08/17 01:52:07;;;;;;;6.67;3.40;;;17.80;99.90;;;;;;4996404;28;20448;-70
2023/08/17 01:54:35;;;;;;;6.00;3.50;;;17.70;99.90;;;;;;4996321;28;20466;-70
2023/08/17 01:57:05;;;;;;;5.20;3.90;;;17.70;99.90;;;;;;4996437;28;20575;-71
2023/08/17 01:59:33;;;;;;;5.53;3.30;;;17.70;99.90;;;;;;5011555;28;20970;-70
2023/08/17 02:02:01;;;;;;;6.07;4.07;;;17.80;99.90;;;;;;5011467;28;20986;-70
2023/08/17 02:04:30;;;;;;;8.40;3.83;;;17.70;99.90;;;;;;4995963;28;20881;-71
2023/08/17 02:06:58;;;;;;;4.97;3.60;;;17.70;99.90;;;;;;4995079;28;20493;-70
2023/08/17 02:09:26;;;;;;;5.70;3.87;;;17.70;99.90;;;;;;5011235;28;20445;-70
2023/08/17 02:11:54;;;;;;;4.93;3.47;;;17.70;99.90;;;;;;5011656;28;21015;-70
2023/08/17 02:14:24;;;;;;;4.77;3.40;;;17.70;99.90;;;;;;5011348;28;20453;-70
2023/08/17 02:16:53;;;;;;;5.50;4.10;;;17.80;99.90;;;;;;4996224;28;20468;-71
2023/08/17 02:19:21;;;;;;;6.23;3.87;;;17.80;99.90;;;;;;4994845;28;20444;-70
2023/08/17 02:21:50;;;;;;;4.80;4.07;;;17.80;99.90;;;;;;5011390;28;20916;-70
2023/08/17 02:24:18;;;;;;;6.93;4.20;;;17.80;99.90;;;;;;4995431;28;20502;-71
2023/08/17 02:26:46;;;;;;;5.37;3.80;;;17.80;99.90;;;;;;5010927;28;20540;-70
2023/08/17 02:29:14;;;;;;;5.87;4.13;;;17.80;99.90;;;;;;4994473;28;20474;-70
2023/08/17 02:31:44;;;;;;;6.03;3.60;;;17.80;99.90;;;;;;4995869;28;20448;-70
2023/08/17 02:34:12;;;;;;;10.10;5.17;;;17.80;99.90;;;;;;4994476;28;20473;-71
2023/08/17 02:36:40;;;;;;;7.17;4.43;;;17.80;99.90;;;;;;5010777;28;20540;-70
2023/08/17 02:39:08;;;;;;;5.60;4.10;;;17.80;99.90;;;;;;4995776;28;20466;-70
2023/08/17 02:41:37;;;;;;;6.90;4.00;;;17.80;99.90;;;;;;4996111;28;20469;-70
2023/08/17 02:44:05;;;;;;;5.13;4.43;;;17.80;99.90;;;;;;5010612;28;20473;-70
2023/08/17 02:46:33;;;;;;;6.63;4.00;;;17.80;99.90;;;;;;5010558;28;20864;-70
2023/08/17 02:49:03;;;;;;;7.87;4.67;;;17.70;99.90;;;;;;4995738;28;20918;-70
2023/08/17 02:51:31;;;;;;;6.63;3.60;;;17.80;99.90;;;;;;5010877;28;20477;-70
2023/08/17 02:53:59;;;;;;;6.40;3.80;;;17.70;99.90;;;;;;5010598;28;20467;-70
2023/08/17 02:56:28;;;;;;;7.10;5.10;;;17.70;99.90;;;;;;5010316;28;20459;-71
2023/08/17 02:58:56;;;;;;;7.57;4.40;;;17.70;99.90;;;;;;5010467;28;20508;-71
2023/08/17 03:01:25;;;;;;;5.00;4.13;;;17.70;99.90;;;;;;4995155;28;20520;-70
2023/08/17 03:03:53;;;;;;;6.17;4.30;;;17.70;99.90;;;;;;5009985;28;20486;-71
2023/08/17 03:06:23;;;;;;;7.47;3.70;;;17.70;99.90;;;;;;5009919;28;20424;-71
2023/08/17 03:08:52;;;;;;;5.80;3.90;;;17.70;99.90;;;;;;4994805;28;20462;-70
2023/08/17 03:11:21;;;;;;;5.43;3.10;;;17.70;99.90;;;;;;4993554;28;20944;-70
2023/08/17 03:13:49;;;;;;;5.73;4.00;;;17.70;99.90;;;;;;5009869;28;20985;-71
2023/08/17 03:16:18;;;;;;;7.03;4.73;;;17.70;99.90;;;;;;4994645;28;20766;-70
2023/08/17 03:18:48;;;;;;;4.90;3.60;;;17.70;99.90;;;;;;4994673;28;20944;-70
2023/08/17 03:21:17;;;;;;;6.60;4.00;;;17.70;99.90;;;;;;4994448;28;20499;-70
2023/08/17 03:23:47;;;;;;;9.40;4.23;;;17.70;99.90;;;;;;5009783;28;20472;-70
2023/08/17 03:26:16;;;;;;;6.10;3.87;;;17.70;99.90;;;;;;4994856;28;20465;-70
2023/08/17 03:28:44;;;;;;;4.80;3.80;;;17.70;99.90;;;;;;4995004;28;20440;-71
2023/08/17 03:31:12;;;;;;;5.20;4.03;;;17.70;99.90;;;;;;4994559;28;20927;-71
2023/08/17 03:33:41;;;;;;;8.43;4.07;;;17.70;99.90;;;;;;5009403;28;20441;-71
2023/08/17 03:36:09;;;;;;;8.20;4.50;;;17.70;99.90;;;;;;5009404;28;20527;-71
2023/08/17 03:38:39;;;;;;;6.00;4.37;;;17.70;99.90;;;;;;5009618;28;20482;-71
2023/08/17 03:41:08;;;;;;;9.20;4.90;;;17.70;99.90;;;;;;5009830;28;20452;-71
2023/08/17 03:43:38;;;;;;;9.13;5.00;;;17.70;99.90;;;;;;4993103;28;20447;-71
2023/08/17 03:46:08;;;;;;;7.73;4.20;;;17.70;99.90;;;;;;4993275;28;20428;-71
2023/08/17 03:48:37;;;;;;;5.27;4.03;;;17.60;99.90;;;;;;4994283;28;20902;-71
2023/08/17 03:51:07;;;;;;;4.60;4.10;;;17.60;99.90;;;;;;4994081;28;20499;-71
2023/08/17 03:53:35;;;;;;;7.27;3.40;;;17.60;99.90;;;;;;4993992;28;20534;-71
2023/08/17 03:56:03;;;;;;;6.10;3.60;;;17.60;99.90;;;;;;5009068;28;20522;-71
2023/08/17 03:58:34;;;;;;;6.53;3.70;;;17.60;99.90;;;;;;5009048;28;20469;-71
2023/08/17 04:01:05;;;;;;;6.63;3.57;;;17.60;99.90;;;;;;4994380;28;20425;-71
2023/08/17 04:03:34;;;;;;;4.97;4.10;;;17.60;99.90;;;;;;5009388;28;20483;-71
2023/08/17 04:06:06;;;;;;;3.93;3.33;;;17.60;99.90;;;;;;5009378;28;20528;-71
2023/08/17 04:08:34;;;;;;;4.67;3.97;;;17.60;99.90;;;;;;4993021;28;20449;-71
2023/08/17 04:11:02;;;;;;;5.40;4.40;;;17.50;99.90;;;;;;5009358;28;20539;-71
2023/08/17 04:13:32;;;;;;;5.70;3.77;;;17.50;99.90;;;;;;4993937;28;20452;-71
2023/08/17 04:16:00;;;;;;;6.60;3.80;;;17.50;99.90;;;;;;4993989;28;20522;-71
2023/08/17 04:18:28;;;;;;;5.80;3.53;;;17.50;99.90;;;;;;4994158;28;20531;-71
2023/08/17 04:20:57;;;;;;;4.60;3.60;;;17.50;99.90;;;;;;4994480;28;20436;-71
2023/08/17 04:23:26;;;;;;;6.47;3.87;;;17.40;99.90;;;;;;5009304;28;20484;-71
2023/08/17 04:25:55;;;;;;;5.73;4.20;;;17.40;99.90;;;;;;5009498;28;20939;-71
2023/08/17 04:28:23;;;;;;;6.20;3.57;;;17.40;99.90;;;;;;5010698;28;20418;-71
2023/08/17 04:30:54;;;;;;;8.00;3.50;;;17.40;99.90;;;;;;4996548;28;20452;-71
2023/08/17 04:33:22;;;;;;;6.97;3.73;;;17.40;99.90;;;;;;5012947;28;20497;-71
2023/08/17 04:35:50;;;;;;;9.33;3.73;;;17.40;99.90;;;;;;4997817;28;20416;-71
2023/08/17 04:38:19;;;;;;;10.17;4.20;;;17.40;99.90;;;;;;4998105;28;20443;-71
2023/08/17 04:40:47;;;;;;;5.17;3.57;;;17.30;99.90;;;;;;5012641;28;20447;-71
2023/08/17 04:43:15;;;;;;;8.07;4.87;;;17.30;99.90;;;;;;4997709;28;20486;-71
2023/08/17 04:45:44;;;;;;;7.00;4.30;;;17.30;99.90;;;;;;4997614;28;20423;-71
2023/08/17 04:48:14;;;;;;;5.70;4.10;;;17.30;99.90;;;;;;5012553;28;20423;-71
2023/08/17 04:50:42;;;;;;;6.63;4.13;;;17.30;99.90;;;;;;5012567;28;20444;-71
2023/08/17 04:53:10;;;;;;;8.63;3.90;;;17.30;99.90;;;;;;4996151;28;20626;-71
2023/08/17 04:55:38;;;;;;;5.93;3.60;;;17.30;99.90;;;;;;5012545;28;20423;-71
2023/08/17 04:58:06;;;;;;;6.97;4.50;;;17.30;99.90;;;;;;4996095;28;20877;-71
2023/08/17 05:00:35;;;;;;;5.57;3.93;;;17.30;99.90;;;;;;5012489;28;20444;-71
2023/08/17 05:03:05;;;;;;;4.20;3.70;;;17.30;99.90;;;;;;5012875;28;20519;-71
2023/08/17 05:05:46;;;;;;;4.90;4.10;;;17.30;99.90;;;;;;5012474;28;20498;-71
2023/08/17 05:08:14;;;;;;;7.17;3.83;;;17.30;99.90;;;;;;4997383;28;20437;-71
2023/08/17 05:10:43;;;;;;;6.27;4.30;;;17.30;99.90;;;;;;5012238;28;20812;-71
2023/08/17 05:13:11;;;;;;;6.00;3.90;;;17.30;99.90;;;;;;4995751;28;20540;-71
2023/08/17 05:15:39;;;;;;;6.10;3.63;;;17.30;99.90;;;;;;4997154;28;20444;-71
2023/08/17 05:18:09;;;;;;;5.17;4.07;;;17.30;99.90;;;;;;5012115;28;20813;-71
2023/08/17 05:20:39;;;;;;;7.37;4.20;;;17.30;99.90;;;;;;4995544;28;20476;-71
2023/08/17 05:23:08;;;;;;;6.37;4.10;;;17.30;99.90;;;;;;4996961;28;20446;-71
2023/08/17 05:25:36;;;;;;;6.43;3.90;;;17.30;99.90;;;;;;4996787;28;20548;-71
2023/08/17 05:28:05;;;;;;;7.60;3.90;;;17.30;99.90;;;;;;4995648;28;20954;-71
2023/08/17 05:30:34;;;;;;;5.13;4.00;;;17.30;99.90;;;;;;4996823;28;20796;-71
2023/08/17 05:33:02;;;;;;;7.20;4.67;;;17.30;99.90;;;;;;4997155;28;20426;-71
2023/08/17 05:35:30;;;;;;;4.13;3.57;;;17.30;99.90;;;;;;4995539;28;20424;-70
2023/08/17 05:37:58;;;;;;;5.37;3.73;;;17.30;99.90;;;;;;4996557;28;20408;-71
2023/08/17 05:40:28;;;;;;;5.03;4.03;;;17.40;99.90;;;;;;5010793;28;20475;-71
2023/08/17 05:42:56;;;;;;;7.03;3.90;;;17.40;99.90;;;;;;4995391;28;20455;-71
2023/08/17 05:45:24;;;;;;;5.40;4.50;;;17.40;99.90;;;;;;5011522;28;20427;-71
2023/08/17 05:47:53;;;;;;;4.73;3.80;;;17.40;99.90;;;;;;4996752;28;20478;-71
2023/08/17 05:50:21;;;;;;;7.37;4.67;;;17.40;99.90;;;;;;4996265;28;20472;-71
2023/08/17 05:52:49;;;;;;;5.07;3.30;;;17.40;99.90;;;;;;4996496;28;20443;-71
2023/08/17 05:55:17;;;;;;;4.70;3.70;;;17.40;99.90;;;;;;4996517;28;20469;-71
2023/08/17 05:57:47;;;;;;;5.40;3.90;;;17.40;99.90;;;;;;5011241;28;20495;-71
2023/08/17 06:00:15;;;;;;;5.17;4.00;;;17.40;99.90;;;;;;4996248;28;20515;-71
2023/08/17 06:02:43;;;;;;;5.63;4.00;;;17.40;99.90;;;;;;4996382;28;20510;-71
2023/08/17 06:05:12;;;;;;;7.90;4.50;;;17.50;99.90;;;;;;4996061;28;20431;-70
2023/08/17 06:07:40;;;;;;;5.83;4.20;;;17.50;99.90;;;;;;5011204;28;20459;-71
2023/08/17 06:10:09;;;;;;;7.70;4.93;;;17.50;99.90;;;;;;4996107;28;20440;-71
2023/08/17 06:12:37;;;;;;;5.83;4.33;;;17.50;99.90;;;;;;4996197;28;20507;-71
2023/08/17 06:15:08;;;;;;;5.70;3.80;;;17.50;99.90;;;;;;4996106;28;20494;-71
2023/08/17 06:17:36;;;;;;;6.73;4.30;;;17.50;99.90;;;;;;4996185;28;20499;-71
2023/08/17 06:20:09;;;;;;;5.90;4.60;;;17.50;99.90;;;;;;4995855;28;20452;-71
2023/08/17 06:22:37;;;;;;;6.27;4.33;;;17.60;99.90;;;;;;4996477;28;20403;-71
2023/08/17 06:25:07;;;;;;;6.40;4.90;;;17.60;99.90;;;;;;4994330;28;20542;-70
2023/08/17 06:27:36;;;;;;;5.33;3.73;;;17.60;99.90;;;;;;4995927;28;20447;-70
2023/08/17 06:30:04;;;;;;;5.20;4.20;;;17.60;99.90;;;;;;4995796;28;20416;-70
2023/08/17 06:32:34;;;;;;;7.07;4.70;;;17.60;99.90;;;;;;4996153;28;20424;-70
2023/08/17 06:35:02;;;;;;;5.00;4.50;;;17.60;99.90;;;;;;4996005;28;20436;-71
2023/08/17 06:37:31;;;;;;;6.00;4.50;;;17.60;99.90;;;;;;4996124;28;20859;-70
2023/08/17 06:39:59;;;;;;;8.50;5.00;;;17.60;99.90;;;;;;4995837;28;20837;-70
2023/08/17 06:42:27;;;;;;;6.80;4.30;;;17.60;99.90;;;;;;4995477;28;20754;-70
2023/08/17 06:44:55;;;;;;;6.70;4.50;;;17.60;99.90;;;;;;4995894;28;20463;-70
2023/08/17 06:47:23;;;;;;;5.57;4.80;;;17.60;99.90;;;;;;4996288;28;20433;-70
2023/08/17 06:49:54;;;;;;;7.10;5.37;;;17.70;99.90;;;;;;4996117;28;20437;-70
2023/08/17 06:52:22;;;;;;;4.93;4.30;;;17.70;99.90;;;;;;5010885;28;20423;-70
2023/08/17 06:54:50;;;;;;;4.73;4.17;;;17.70;99.90;;;;;;4995653;28;20460;-70
2023/08/17 06:57:18;;;;;;;7.63;4.83;;;17.70;99.90;;;;;;4995442;28;20423;-70
2023/08/17 06:59:46;;;;;;;7.50;5.10;;;17.70;99.90;;;;;;5010840;28;20476;-70
2023/08/17 07:02:15;;;;;;;5.93;4.93;;;17.70;99.90;;;;;;4995082;28;20515;-70
2023/08/17 07:04:43;;;;;;;7.27;5.23;;;17.70;99.90;;;;;;4995079;28;20465;-70
2023/08/17 07:07:14;;;;;;;6.90;6.13;;;17.70;99.90;;;;;;4995421;28;20412;-71
2023/08/17 07:09:42;;;;;;;7.90;5.87;;;17.70;99.90;;;;;;4995189;28;20450;-69
2023/08/17 07:12:10;;;;;;;8.60;6.40;;;17.70;99.90;;;;;;4994964;28;20925;-70
2023/08/17 07:14:38;;;;;;;10.53;6.97;;;17.70;99.90;;;;;;4994790;28;21043;-70
2023/08/17 07:17:06;;;;;;;6.80;6.20;;;17.70;99.90;;;;;;4995493;28;20438;-70
2023/08/17 07:19:34;;;;;;;6.53;5.80;;;17.70;99.90;;;;;;5010118;28;20481;-69
2023/08/17 07:22:24;;;;;;;6.10;5.37;;;17.70;99.90;;;;;;5010036;28;20424;-70
2023/08/17 07:24:53;;;;;;;6.60;6.00;;;17.70;99.90;;;;;;4995198;28;20471;-69
2023/08/17 07:27:21;;;;;;;6.83;6.13;;;17.70;99.90;;;;;;4995032;28;20772;-70
2023/08/17 07:29:49;;;;;;;7.20;6.60;;;17.70;99.90;;;;;;4995278;28;20418;-70
2023/08/17 07:32:17;;;;;;;6.33;5.63;;;17.70;99.90;;;;;;4995558;28;20430;-71
2023/08/17 07:34:45;;;;;;;7.27;6.57;;;17.70;99.90;;;;;;5010878;28;20564;-70
2023/08/17 07:37:13;;;;;;;6.80;6.17;;;17.70;99.90;;;;;;4995336;28;20423;-69
2023/08/17 07:39:44;;;;;;;7.17;6.20;;;17.80;99.90;;;;;;5010496;28;20449;-70
2023/08/17 07:42:12;;;;;;;6.60;6.00;;;17.70;99.90;;;;;;4994221;28;20424;-70
2023/08/17 07:44:41;;;;;;;6.80;6.17;;;17.70;99.90;;;;;;4995131;28;20465;-70
2023/08/17 07:47:10;;;;;;;6.63;5.50;;;17.70;99.90;;;;;;4994170;28;20954;-69
2023/08/17 07:49:38;;;;;;;8.30;5.60;;;17.70;99.90;;;;;;4994179;28;20449;-70
2023/08/17 07:52:06;;;;;;;7.50;5.40;;;17.70;99.90;;;;;;4996046;28;20435;-70
2023/08/17 07:54:34;;;;;;;6.93;5.23;;;17.70;99.90;;;;;;4994833;28;20463;-70
2023/08/17 07:57:04;;;;;;;7.83;5.13;;;17.70;99.90;;;;;;4994369;28;20836;-70
2023/08/17 07:59:32;;;;;;;6.17;5.57;;;17.70;99.90;;;;;;4995222;28;20838;-70
2023/08/17 08:02:00;;;;;;;6.87;4.80;;;17.70;99.90;;;;;;4994563;28;20995;-70
2023/08/17 08:04:28;;;;;;;5.10;4.60;;;17.70;99.90;;;;;;5000667;28;20487;-70
2023/08/17 08:06:56;;;;;;;5.83;5.10;;;17.70;99.90;;;;;;5016267;28;20559;-70
2023/08/17 08:09:24;;;;;;;5.43;4.93;;;17.80;99.90;;;;;;5001640;28;20476;-70
2023/08/17 08:11:52;;;;;;;5.07;4.57;;;17.80;99.90;;;;;;5002084;28;20783;-70
2023/08/17 08:14:22;;;;;;;4.63;4.20;;;17.80;99.90;;;;;;5001256;28;20556;-69
2023/08/17 08:16:50;;;;;;;5.67;4.23;;;17.80;99.90;;;;;;5000687;28;20468;-70
2023/08/17 08:19:18;;;;;;;4.43;4.03;;;17.80;99.90;;;;;;5000999;28;20440;-70
2023/08/17 08:21:46;;;;;;;5.17;4.67;;;17.80;99.90;;;;;;5001606;28;20439;-70
2023/08/17 08:24:14;;;;;;;5.10;4.20;;;17.90;99.90;;;;;;5001014;28;20487;-70
2023/08/17 08:26:57;;;;;;;4.37;3.97;;;17.90;99.90;;;;;;5001425;28;20504;-70
2023/08/17 08:29:27;;;;;;;5.03;3.70;;;17.90;99.90;;;;;;5000909;28;20506;-70
2023/08/17 08:31:57;;;;;;;5.63;3.30;;;17.90;99.90;;;;;;5000266;28;20929;-69
2023/08/17 08:34:25;;;;;;;4.77;3.37;;;18.00;99.90;;;;;;5000137;28;20453;-70
2023/08/17 08:36:53;;;;;;;3.80;3.20;;;18.00;99.90;;;;;;5000108;28;20926;-70
2023/08/17 08:39:21;;;;;;;4.27;3.40;;;18.00;99.90;;;;;;5000455;28;20432;-70
2023/08/17 08:41:49;;;;;;;3.93;3.60;;;18.00;99.90;;;;;;5016072;28;20554;-70
2023/08/17 08:44:17;;;;;;;3.20;2.90;;;18.10;99.90;;;;;;5000780;28;20540;-70
2023/08/17 08:46:48;;;;;;;6.63;3.73;;;18.10;99.90;;;;;;5001477;28;20440;-70
2023/08/17 08:49:23;;;;;;;4.10;3.70;;;18.10;99.90;;;;;;5001187;28;20508;-70
2023/08/17 08:51:52;;;;;;;3.97;3.67;;;18.10;99.90;;;;;;5001004;28;20806;-70
2023/08/17 08:54:23;;;;;;;4.70;3.73;;;18.20;99.90;;;;;;5000672;28;20460;-70
2023/08/17 08:56:55;;;;;;;5.27;3.60;;;18.20;99.90;;;;;;5000749;28;20467;-70
2023/08/17 08:59:26;;;;;;;4.30;3.90;;;18.20;99.90;;;;;;5001085;28;20759;-70
2023/08/17 09:01:58;;;;;;;4.70;4.00;;;18.20;99.90;;;;;;5000507;28;20949;-70
2023/08/17 09:04:27;;;;;;;4.00;3.70;;;18.20;99.90;;;;;;5000749;28;20464;-70
2023/08/17 09:06:56;;;;;;;4.53;4.13;;;18.30;99.90;;;;;;5000906;28;20934;-70
2023/08/17 09:09:24;;;;;;;4.20;3.80;;;18.30;99.90;;;;;;5001344;28;20460;-71
2023/08/17 09:11:55;;;;;;;5.07;3.93;;;18.30;99.90;;;;;;5001400;28;20936;-71
2023/08/17 09:14:23;;;;;;;5.03;3.07;;;18.30;99.90;;;;;;4998694;28;20460;-71
2023/08/17 09:16:52;;;;;;;4.33;3.77;;;18.30;99.90;;;;;;4998166;28;20466;-70
2023/08/17 09:19:21;;;;;;;4.13;3.37;;;18.30;99.90;;;;;;5013046;28;20437;-70
2023/08/17 09:21:49;;;;;;;3.83;3.53;;;18.30;99.90;;;;;;4998612;28;20523;-70
2023/08/17 09:24:18;;;;;;;3.73;3.30;;;18.30;99.90;;;;;;4997613;28;20546;-71
2023/08/17 09:26:47;;;;;;;3.50;3.20;;;18.40;99.90;;;;;;4997989;28;20545;-71
2023/08/17 09:29:19;;;;;;;3.60;3.30;;;18.40;99.90;;;;;;4998036;28;20840;-71
2023/08/17 09:31:47;;;;;;;3.20;2.90;;;18.40;99.90;;;;;;4998155;28;20425;-71
2023/08/17 09:34:16;;;;;;;3.07;2.67;;;18.40;99.90;;;;;;4998574;28;20464;-71
2023/08/17 09:36:48;;;;;;;3.13;2.43;;;18.40;99.90;;;;;;4997888;28;20984;-71
2023/08/17 09:39:18;;;;;;;2.67;2.40;;;18.50;99.90;;;;;;4997915;28;20422;-70
2023/08/17 09:41:46;;;;;;;3.03;2.70;;;18.50;99.90;;;;;;4997803;28;20917;-71
2023/08/17 09:44:14;;;;;;;2.93;2.20;;;18.50;99.90;;;;;;5013205;28;20567;-70
2023/08/17 09:46:46;;;;;;;2.80;2.23;;;18.50;99.90;;;;;;5012747;28;20465;-70
2023/08/17 09:49:14;;;;;;;2.70;1.93;;;18.40;99.90;;;;;;4997837;28;20468;-71
2023/08/17 09:51:44;;;;;;;3.17;2.00;;;18.40;99.90;;;;;;4997869;28;20797;-71
2023/08/17 09:54:22;;;;;;;3.80;2.00;;;18.30;99.90;;;;;;5012654;28;20443;-71
2023/08/17 09:56:51;;;;;;;4.37;2.17;;;18.30;99.90;;;;;;5012959;28;20514;-71
2023/08/17 09:59:20;;;;;;;3.43;1.83;;;18.30;99.90;;;;;;4998071;28;20444;-71
2023/08/17 10:01:50;;;;;;;3.33;1.97;;;18.30;99.90;;;;;;4998287;28;20468;-71
2023/08/17 10:04:23;;;;;;;3.63;2.03;;;18.30;99.90;;;;;;4997705;28;20452;-71
2023/08/17 10:06:58;;;;;;;2.73;2.10;;;18.30;99.90;;;;;;5012891;28;20456;-71
2023/08/17 10:09:35;;;;;;;2.77;2.13;;;18.30;99.90;;;;;;4997647;28;20453;-71
2023/08/17 10:12:10;;;;;;;2.30;2.10;;;18.30;99.90;;;;;;4997368;28;20421;-72
2023/08/17 10:14:46;;;;;;;2.90;2.47;;;18.30;99.90;;;;;;4997414;28;20928;-70
2023/08/17 10:17:20;;;;;;;4.90;3.03;;;18.30;99.90;;;;;;4997574;28;20820;-71
2023/08/17 10:19:52;;;;;;;4.43;2.37;;;18.30;99.90;;;;;;4997438;28;20891;-71
2023/08/17 10:22:27;;;;;;;4.30;2.40;;;18.30;99.90;;;;;;5010816;28;20496;-72
2023/08/17 10:24:58;;;;;;;3.10;2.77;;;18.30;99.90;;;;;;4994335;28;20479;-72
2023/08/17 10:27:27;;;;;;;4.17;2.60;;;18.30;99.90;;;;;;4995310;28;20460;-72
2023/08/17 10:29:56;;;;;;;3.27;2.50;;;18.40;99.90;;;;;;4995679;28;20536;-72
2023/08/17 10:32:25;;;;;;;2.83;2.50;;;18.40;99.90;;;;;;4995789;28;20520;-71
2023/08/17 10:34:55;;;;;;;2.87;2.57;;;18.50;99.90;;;;;;5010527;28;20468;-72
2023/08/17 10:37:24;;;;;;;3.03;2.73;;;18.50;99.90;;;;;;4995427;28;20441;-72
2023/08/17 10:39:52;;;;;;;3.20;2.90;;;18.60;99.90;;;;;;4994151;28;20472;-71
2023/08/17 10:42:33;;;;;;;4.93;2.90;;;18.60;99.90;;;;;;4995463;28;20464;-71
2023/08/17 10:45:03;;;;;;;3.50;2.80;;;18.70;99.90;;;;;;5010437;28;20546;-71
2023/08/17 10:47:33;;;;;;;3.80;3.07;;;18.70;99.90;;;;;;4995590;28;21012;-72
2023/08/17 10:50:07;;;;;;;3.70;2.90;;;18.70;99.90;;;;;;4995859;28;20421;-72
2023/08/17 10:52:38;;;;;;;3.43;2.90;;;18.60;99.90;;;;;;4995394;28;20449;-71
2023/08/17 10:55:07;;;;;;;4.97;2.90;;;18.70;99.90;;;;;;4995930;28;20495;-71
2023/08/17 10:57:39;;;;;;;4.80;3.40;;;18.70;99.90;;;;;;4995241;28;20551;-71
2023/08/17 11:00:21;;;;;;;4.10;2.93;;;18.70;99.90;;;;;;4995460;28;20456;-71
2023/08/17 11:02:58;;;;;;;2.93;2.60;;;18.70;99.90;;;;;;4995142;28;20503;-71
2023/08/17 11:05:42;;;;;;;3.60;2.80;;;18.70;99.90;;;;;;5010381;28;20491;-71
2023/08/17 11:08:14;;;;;;;5.10;3.10;;;18.80;99.90;;;;;;4995140;28;20483;-72
2023/08/17 11:10:48;;;;;;;3.43;2.80;;;18.90;99.90;;;;;;4995345;28;20432;-72
2023/08/17 11:13:17;;;;;;;3.00;2.60;;;18.90;99.90;;;;;;5010184;28;20458;-71
2023/08/17 11:15:48;;;;;;;3.77;3.00;;;18.90;99.90;;;;;;4995268;28;20524;-72
2023/08/17 11:18:16;;;;;;;3.33;3.00;;;19.00;99.90;;;;;;4995075;28;20400;-71
2023/08/17 11:20:45;;;;;;;4.13;2.70;;;19.00;99.90;;;;;;5010133;28;20444;-71
2023/08/17 11:23:13;;;;;;;3.80;2.83;;;19.00;99.90;;;;;;5009857;28;20512;-72
2023/08/17 11:25:43;;;;;;;6.27;2.80;;;19.00;99.90;;;;;;4994804;28;20437;-71
2023/08/17 11:28:14;;;;;;;3.57;3.10;;;19.00;99.90;;;;;;4995468;28;20751;-71
2023/08/17 11:30:43;;;;;;;3.00;2.47;;;19.00;99.90;;;;;;4994922;28;20523;-71
2023/08/17 11:33:14;;;;;;;3.20;2.90;;;19.00;99.90;;;;;;4995102;28;20456;-71
2023/08/17 11:35:43;;;;;;;3.30;3.00;;;19.10;99.90;;;;;;4994797;28;20471;-71
2023/08/17 11:38:11;;;;;;;4.63;3.20;;;19.10;99.90;;;;;;4994025;28;20456;-71
2023/08/17 11:40:39;;;;;;;3.30;2.67;;;19.10;99.90;;;;;;4995389;28;20516;-71
2023/08/17 11:43:07;;;;;;;3.60;3.30;;;19.10;99.90;;;;;;4994492;28;20505;-71
2023/08/17 11:45:36;;;;;;;3.30;3.00;;;19.10;99.90;;;;;;4993567;28;20453;-71
2023/08/17 11:48:07;;;;;;;3.40;3.10;;;19.10;99.90;;;;;;4994528;28;20448;-71
2023/08/17 11:50:35;;;;;;;3.60;3.30;;;19.20;99.90;;;;;;4994618;28;20437;-72
2023/08/17 11:53:07;;;;;;;3.83;3.40;;;19.20;99.90;;;;;;4994471;28;20421;-71
2023/08/17 11:55:35;;;;;;;3.13;2.83;;;19.30;99.90;;;;;;4994688;28;20443;-72
2023/08/17 11:58:03;;;;;;;4.03;3.00;;;19.30;99.90;;;;;;4994327;28;20495;-71
2023/08/17 12:00:41;;;;;;;5.83;3.40;;;19.40;99.90;;;;;;4994312;28;20433;-72
2023/08/17 12:03:14;;;;;;;3.43;3.13;;;19.40;99.90;;;;;;4994328;28;20488;-72
2023/08/17 12:05:44;;;;;;;3.90;3.30;;;19.40;99.90;;;;;;4994469;28;20433;-71
2023/08/17 12:08:14;;;;;;;3.50;3.20;;;19.50;99.90;;;;;;4994846;28;20956;-72
2023/08/17 12:10:45;;;;;;;3.20;2.80;;;19.50;99.90;;;;;;4994854;28;20961;-72
2023/08/17 12:13:14;;;;;;;3.63;3.33;;;19.50;99.90;;;;;;4994513;28;20453;-71
2023/08/17 12:15:43;;;;;;;6.23;3.50;;;19.50;99.90;;;;;;4994647;28;20529;-72
2023/08/17 12:18:13;;;;;;;4.23;3.47;;;19.60;99.90;;;;;;4994590;28;20495;-72
2023/08/17 12:20:41;;;;;;;4.57;3.03;;;19.60;99.90;;;;;;4994180;28;21025;-72
2023/08/17 12:23:12;;;;;;;4.90;3.17;;;19.60;99.90;;;;;;4994144;28;20477;-71
2023/08/17 12:25:40;;;;;;;5.10;3.57;;;19.70;99.90;;;;;;5009432;28;20444;-72
2023/08/17 12:28:08;;;;;;;3.40;3.10;;;19.70;99.90;;;;;;4994473;28;20531;-72
2023/08/17 12:30:37;;;;;;;4.03;3.10;;;19.70;99.90;;;;;;4994657;28;20436;-71
2023/08/17 12:33:05;;;;;;;4.30;2.80;;;19.70;99.90;;;;;;5009497;28;20831;-72
2023/08/17 12:35:35;;;;;;;3.17;2.90;;;19.70;99.90;;;;;;5009212;28;20457;-72
2023/08/17 12:38:04;;;;;;;4.20;2.77;;;19.70;99.90;;;;;;4994005;28;20452;-72
2023/08/17 12:40:33;;;;;;;3.40;3.10;;;19.70;99.90;;;;;;4993934;28;20784;-71
2023/08/17 12:43:02;;;;;;;3.23;2.93;;;19.70;99.90;;;;;;4992716;28;20815;-72
2023/08/17 12:45:30;;;;;;;4.57;3.03;;;19.60;99.90;;;;;;4993810;28;20957;-72
2023/08/17 12:48:00;;;;;;;3.90;2.93;;;19.70;99.90;;;;;;4994462;28;20472;-71
2023/08/17 12:50:28;;;;;;;4.43;3.50;;;19.70;99.90;;;;;;4997202;28;20503;-72
2023/08/17 12:52:58;;;;;;;3.60;3.30;;;19.60;99.90;;;;;;4997581;28;20433;-71
2023/08/17 12:55:26;;;;;;;3.70;2.70;;;19.60;99.90;;;;;;4997563;28;20506;-72
2023/08/17 12:57:54;;;;;;;4.23;3.27;;;19.50;99.90;;;;;;4997486;28;20480;-71